createdAt,value
2022-12-31T00:00:25.248Z,357.55
2022-12-31T00:01:25.339Z,359.49
2022-12-31T00:02:25.568Z,359.10
2022-12-31T00:03:25.612Z,358.71
2022-12-31T00:04:25.600Z,359.10
2022-12-31T00:05:25.670Z,359.49
2022-12-31T00:06:25.780Z,357.55
2022-12-31T00:07:25.850Z,358.33
2022-12-31T00:08:25.939Z,357.16
2022-12-31T00:09:26.021Z,358.71
2022-12-31T00:10:26.083Z,358.33
2022-12-31T00:11:26.172Z,357.55
2022-12-31T00:12:26.272Z,359.49
2022-12-31T00:13:26.356Z,358.33
2022-12-31T00:14:26.434Z,358.33
2022-12-31T00:15:26.522Z,358.33
2022-12-31T00:16:26.671Z,360.28
2022-12-31T00:17:26.691Z,357.55
2022-12-31T00:18:26.761Z,360.67
2022-12-31T00:19:26.856Z,357.55
2022-12-31T00:20:26.974Z,357.94
2022-12-31T00:21:27.052Z,359.49
2022-12-31T00:22:27.133Z,357.16
2022-12-31T00:23:27.213Z,357.94
2022-12-31T00:24:27.257Z,357.94
2022-12-31T00:25:33.335Z,359.89
2022-12-31T00:26:27.465Z,358.33
2022-12-31T00:27:27.527Z,358.33
2022-12-31T00:28:27.660Z,359.49
2022-12-31T00:29:27.708Z,358.71
2022-12-31T00:30:27.809Z,358.33
2022-12-31T00:31:27.860Z,358.71
2022-12-31T00:32:27.939Z,357.16
2022-12-31T00:33:28.032Z,357.94
2022-12-31T00:34:28.148Z,358.33
2022-12-31T00:35:28.222Z,360.67
2022-12-31T00:36:28.324Z,358.33
2022-12-31T00:37:28.360Z,359.49
2022-12-31T00:38:28.447Z,359.89
2022-12-31T00:39:28.547Z,358.71
2022-12-31T00:40:28.610Z,359.49
2022-12-31T00:41:28.686Z,357.55
2022-12-31T00:42:28.753Z,357.94
2022-12-31T00:43:28.845Z,357.55
2022-12-31T00:44:28.957Z,359.49
2022-12-31T00:45:29.019Z,358.71
2022-12-31T00:46:29.151Z,357.94
2022-12-31T00:47:29.157Z,359.89
2022-12-31T00:48:29.238Z,356.78
2022-12-31T00:49:29.306Z,358.71
2022-12-31T00:50:29.403Z,358.71
2022-12-31T00:51:29.503Z,358.33
2022-12-31T00:52:29.577Z,359.89
2022-12-31T00:53:29.649Z,357.94
2022-12-31T00:54:30.439Z,359.10
2022-12-31T00:55:29.820Z,360.67
2022-12-31T00:56:36.087Z,357.94
2022-12-31T00:57:29.979Z,357.94
2022-12-31T00:58:30.068Z,359.10
2022-12-31T00:59:30.146Z,358.71
2022-12-31T01:00:30.223Z,357.55
2022-12-31T01:01:30.404Z,359.89
2022-12-31T01:02:30.599Z,358.71
2022-12-31T01:03:30.503Z,359.10
2022-12-31T01:04:30.558Z,360.67
2022-12-31T01:05:30.648Z,359.49
2022-12-31T01:06:30.716Z,361.07
2022-12-31T01:07:30.844Z,357.16
2022-12-31T01:08:30.884Z,356.01
2022-12-31T01:09:30.957Z,357.94
2022-12-31T01:10:31.050Z,362.25
2022-12-31T01:11:31.152Z,357.94
2022-12-31T01:12:31.226Z,357.16
2022-12-31T01:13:31.319Z,356.78
2022-12-31T01:14:31.372Z,357.16
2022-12-31T01:15:31.536Z,357.16
2022-12-31T01:16:31.556Z,358.71
2022-12-31T01:17:31.626Z,358.71
2022-12-31T01:18:31.738Z,360.28
2022-12-31T01:19:31.778Z,357.55
2022-12-31T01:20:31.878Z,357.94
2022-12-31T01:21:31.963Z,359.10
2022-12-31T01:22:32.052Z,356.78
2022-12-31T01:23:32.145Z,357.55
2022-12-31T01:24:32.263Z,358.71
2022-12-31T01:25:32.327Z,357.55
2022-12-31T01:26:32.382Z,356.39
2022-12-31T01:27:41.393Z,359.49
2022-12-31T01:28:32.552Z,356.01
2022-12-31T01:29:32.648Z,357.94
2022-12-31T01:30:32.700Z,359.49
2022-12-31T01:31:32.781Z,356.78
2022-12-31T01:32:32.851Z,359.89
2022-12-31T01:33:32.927Z,357.16
2022-12-31T01:34:33.005Z,357.16
2022-12-31T01:35:33.123Z,359.49
2022-12-31T01:36:33.181Z,357.16
2022-12-31T01:37:33.253Z,359.89
2022-12-31T01:38:33.339Z,359.49
2022-12-31T01:39:33.426Z,359.89
2022-12-31T01:40:33.527Z,358.71
2022-12-31T01:41:33.599Z,357.55
2022-12-31T01:42:33.672Z,361.46
2022-12-31T01:43:33.735Z,356.39
2022-12-31T01:44:33.846Z,358.33
2022-12-31T01:45:33.932Z,357.94
2022-12-31T01:46:34.073Z,356.39
2022-12-31T01:47:34.098Z,358.71
2022-12-31T01:48:34.183Z,357.55
2022-12-31T01:49:34.297Z,358.33
2022-12-31T01:50:34.391Z,361.07
2022-12-31T01:51:34.457Z,357.94
2022-12-31T01:52:34.559Z,358.33
2022-12-31T01:53:34.633Z,359.49
2022-12-31T01:54:34.690Z,357.94
2022-12-31T01:55:34.786Z,357.16
2022-12-31T01:56:34.867Z,356.01
2022-12-31T01:57:34.979Z,356.78
2022-12-31T01:58:42.600Z,356.78
2022-12-31T01:59:35.139Z,358.33
2022-12-31T02:00:35.221Z,358.33
2022-12-31T02:01:35.416Z,357.55
2022-12-31T02:02:35.469Z,360.28
2022-12-31T02:03:35.460Z,358.71
2022-12-31T02:04:35.570Z,358.71
2022-12-31T02:05:35.629Z,358.33
2022-12-31T02:06:35.705Z,357.55
2022-12-31T02:07:35.806Z,357.55
2022-12-31T02:08:41.806Z,357.16
2022-12-31T02:09:35.956Z,359.89
2022-12-31T02:10:36.024Z,356.39
2022-12-31T02:11:36.080Z,358.33
2022-12-31T02:12:36.166Z,357.16
2022-12-31T02:13:36.253Z,359.89
2022-12-31T02:14:36.352Z,359.89
2022-12-31T02:15:36.495Z,359.49
2022-12-31T02:16:36.530Z,357.55
2022-12-31T02:17:36.592Z,356.78
2022-12-31T02:18:36.662Z,357.55
2022-12-31T02:19:36.852Z,359.49
2022-12-31T02:20:36.815Z,358.71
2022-12-31T02:21:36.900Z,356.39
2022-12-31T02:22:37.024Z,356.39
2022-12-31T02:23:37.072Z,357.55
2022-12-31T02:24:37.149Z,356.78
2022-12-31T02:25:37.211Z,360.28
2022-12-31T02:26:37.303Z,357.55
2022-12-31T02:27:37.400Z,357.16
2022-12-31T02:28:37.502Z,359.49
2022-12-31T02:29:43.529Z,359.49
2022-12-31T02:30:37.622Z,357.16
2022-12-31T02:31:37.780Z,359.49
2022-12-31T02:32:37.764Z,358.33
2022-12-31T02:33:37.850Z,356.39
2022-12-31T02:34:37.956Z,356.39
2022-12-31T02:35:38.008Z,357.16
2022-12-31T02:36:38.092Z,358.33
2022-12-31T02:37:38.176Z,356.78
2022-12-31T02:38:38.265Z,357.16
2022-12-31T02:39:38.363Z,357.55
2022-12-31T02:40:38.467Z,358.33
2022-12-31T02:41:39.117Z,356.78
2022-12-31T02:42:38.609Z,357.94
2022-12-31T02:43:38.696Z,356.78
2022-12-31T02:44:38.797Z,359.49
2022-12-31T02:45:38.891Z,358.33
2022-12-31T02:46:39.036Z,356.78
2022-12-31T02:47:39.039Z,357.55
2022-12-31T02:48:39.097Z,359.10
2022-12-31T02:49:39.158Z,359.10
2022-12-31T02:50:39.237Z,357.94
2022-12-31T02:51:39.317Z,356.78
2022-12-31T02:52:39.403Z,357.16
2022-12-31T02:53:39.456Z,358.71
2022-12-31T02:54:39.551Z,357.55
2022-12-31T02:55:39.627Z,357.55
2022-12-31T02:56:39.734Z,359.49
2022-12-31T02:57:39.828Z,359.89
2022-12-31T02:58:39.877Z,358.33
2022-12-31T02:59:39.949Z,357.55
2022-12-31T03:00:46.060Z,356.01
2022-12-31T03:01:40.334Z,361.07
2022-12-31T03:02:40.230Z,358.71
2022-12-31T03:03:40.333Z,358.71
2022-12-31T03:04:40.358Z,357.94
2022-12-31T03:05:40.473Z,358.33
2022-12-31T03:06:40.527Z,361.07
2022-12-31T03:07:40.618Z,358.33
2022-12-31T03:08:40.720Z,358.71
2022-12-31T03:09:40.803Z,357.55
2022-12-31T03:10:40.870Z,358.33
2022-12-31T03:11:40.971Z,357.55
2022-12-31T03:12:41.050Z,356.78
2022-12-31T03:13:41.118Z,357.94
2022-12-31T03:14:41.222Z,359.10
2022-12-31T03:15:41.267Z,356.01
2022-12-31T03:16:41.363Z,357.55
2022-12-31T03:17:41.450Z,357.94
2022-12-31T03:18:41.553Z,358.71
2022-12-31T03:19:41.646Z,358.71
2022-12-31T03:20:41.731Z,359.49
2022-12-31T03:21:41.813Z,357.55
2022-12-31T03:22:41.908Z,356.78
2022-12-31T03:23:41.995Z,356.78
2022-12-31T03:24:42.065Z,357.94
2022-12-31T03:25:42.186Z,357.55
2022-12-31T03:26:42.252Z,359.89
2022-12-31T03:27:42.332Z,358.33
2022-12-31T03:28:42.437Z,357.55
2022-12-31T03:29:42.525Z,360.28
2022-12-31T03:30:42.631Z,357.16
2022-12-31T03:31:48.691Z,359.89
2022-12-31T03:32:42.758Z,357.16
2022-12-31T03:33:42.845Z,357.55
2022-12-31T03:34:42.948Z,358.33
2022-12-31T03:35:43.041Z,358.33
2022-12-31T03:36:43.119Z,357.16
2022-12-31T03:37:43.198Z,357.55
2022-12-31T03:38:43.284Z,360.28
2022-12-31T03:39:43.347Z,359.89
2022-12-31T03:40:43.455Z,360.28
2022-12-31T03:41:43.568Z,358.71
2022-12-31T03:42:43.606Z,359.49
2022-12-31T03:43:43.665Z,358.33
2022-12-31T03:44:43.761Z,358.71
2022-12-31T03:45:43.895Z,356.78
2022-12-31T03:46:43.927Z,359.10
2022-12-31T03:47:44.027Z,358.71
2022-12-31T03:48:44.068Z,357.94
2022-12-31T03:49:44.159Z,357.55
2022-12-31T03:50:44.256Z,357.94
2022-12-31T03:51:44.331Z,357.55
2022-12-31T03:52:44.434Z,357.94
2022-12-31T03:53:44.563Z,357.16
2022-12-31T03:54:44.610Z,356.78
2022-12-31T03:55:44.699Z,356.39
2022-12-31T03:56:44.787Z,357.16
2022-12-31T03:57:45.571Z,358.71
2022-12-31T03:58:44.970Z,359.10
2022-12-31T03:59:45.071Z,359.49
2022-12-31T04:00:45.178Z,357.94
2022-12-31T04:01:45.348Z,357.16
2022-12-31T04:02:51.321Z,357.55
2022-12-31T04:03:45.420Z,359.89
2022-12-31T04:04:45.499Z,359.49
2022-12-31T04:05:45.583Z,357.94
2022-12-31T04:06:45.641Z,362.65
2022-12-31T04:07:45.722Z,358.33
2022-12-31T04:08:45.819Z,358.71
2022-12-31T04:09:45.923Z,359.10
2022-12-31T04:10:46.016Z,359.49
2022-12-31T04:11:46.081Z,359.49
2022-12-31T04:12:46.165Z,360.28
2022-12-31T04:13:46.239Z,358.33
2022-12-31T04:14:46.322Z,357.16
2022-12-31T04:15:46.430Z,357.55
2022-12-31T04:16:46.556Z,359.89
2022-12-31T04:17:46.596Z,359.49
2022-12-31T04:18:46.662Z,359.49
2022-12-31T04:19:46.742Z,359.49
2022-12-31T04:20:46.817Z,359.89
2022-12-31T04:21:46.892Z,358.71
2022-12-31T04:22:47.009Z,359.89
2022-12-31T04:23:47.045Z,361.07
2022-12-31T04:24:47.147Z,358.33
2022-12-31T04:25:47.234Z,358.71
2022-12-31T04:26:47.331Z,361.46
2022-12-31T04:27:47.426Z,361.46
2022-12-31T04:28:47.537Z,359.10
2022-12-31T04:29:47.600Z,360.67
2022-12-31T04:30:47.658Z,361.07
2022-12-31T04:31:47.742Z,361.46
2022-12-31T04:32:47.819Z,361.46
2022-12-31T04:33:54.223Z,361.86
2022-12-31T04:34:47.940Z,361.86
2022-12-31T04:35:48.030Z,361.86
2022-12-31T04:36:48.117Z,361.07
2022-12-31T04:37:48.199Z,361.46
2022-12-31T04:38:48.277Z,364.25
2022-12-31T04:39:48.367Z,361.07
2022-12-31T04:40:48.442Z,361.86
2022-12-31T04:41:48.542Z,360.28
2022-12-31T04:42:48.641Z,361.07
2022-12-31T04:43:48.724Z,363.05
2022-12-31T04:44:48.804Z,363.85
2022-12-31T04:45:48.906Z,362.65
2022-12-31T04:46:48.978Z,362.65
2022-12-31T04:47:49.060Z,362.65
2022-12-31T04:48:49.117Z,363.05
2022-12-31T04:49:49.194Z,363.45
2022-12-31T04:50:49.302Z,363.85
2022-12-31T04:51:49.357Z,363.45
2022-12-31T04:52:49.457Z,360.67
2022-12-31T04:53:49.560Z,360.28
2022-12-31T04:54:49.612Z,363.45
2022-12-31T04:55:49.719Z,362.65
2022-12-31T04:56:49.787Z,361.86
2022-12-31T04:57:49.870Z,362.65
2022-12-31T04:58:49.948Z,363.05
2022-12-31T04:59:50.046Z,364.25
2022-12-31T05:00:50.206Z,361.07
2022-12-31T05:01:50.395Z,362.65
2022-12-31T05:02:50.461Z,363.85
2022-12-31T05:03:50.338Z,363.45
2022-12-31T05:04:56.415Z,363.05
2022-12-31T05:05:50.520Z,363.05
2022-12-31T05:06:50.616Z,365.46
2022-12-31T05:07:50.665Z,364.65
2022-12-31T05:08:50.734Z,363.85
2022-12-31T05:09:50.858Z,362.65
2022-12-31T05:10:50.937Z,362.65
2022-12-31T05:11:51.031Z,363.85
2022-12-31T05:12:51.117Z,363.85
2022-12-31T05:13:52.116Z,363.85
2022-12-31T05:14:51.244Z,363.45
2022-12-31T05:15:51.323Z,363.05
2022-12-31T05:16:51.487Z,364.25
2022-12-31T05:17:51.496Z,362.65
2022-12-31T05:18:51.574Z,363.45
2022-12-31T05:19:51.655Z,362.65
2022-12-31T05:20:51.742Z,363.05
2022-12-31T05:21:51.818Z,363.05
2022-12-31T05:22:51.896Z,363.85
2022-12-31T05:23:51.971Z,362.65
2022-12-31T05:24:52.040Z,363.45
2022-12-31T05:25:52.148Z,365.46
2022-12-31T05:26:52.207Z,365.46
2022-12-31T05:27:52.299Z,365.05
2022-12-31T05:28:52.367Z,364.65
2022-12-31T05:29:52.495Z,363.45
2022-12-31T05:30:52.610Z,366.27
2022-12-31T05:31:52.607Z,364.65
2022-12-31T05:32:52.693Z,364.65
2022-12-31T05:33:52.780Z,363.05
2022-12-31T05:34:52.878Z,367.08
2022-12-31T05:35:59.268Z,363.85
2022-12-31T05:36:53.034Z,365.46
2022-12-31T05:37:53.106Z,363.45
2022-12-31T05:38:53.192Z,363.05
2022-12-31T05:39:53.289Z,365.86
2022-12-31T05:40:53.371Z,366.67
2022-12-31T05:41:53.464Z,362.65
2022-12-31T05:42:53.540Z,365.86
2022-12-31T05:43:53.606Z,365.86
2022-12-31T05:44:53.708Z,361.86
2022-12-31T05:45:53.792Z,365.86
2022-12-31T05:46:53.844Z,364.25
2022-12-31T05:47:53.945Z,363.85
2022-12-31T05:48:54.016Z,364.65
2022-12-31T05:49:54.109Z,366.67
2022-12-31T05:50:54.183Z,363.85
2022-12-31T05:51:54.242Z,363.45
2022-12-31T05:52:54.333Z,364.25
2022-12-31T05:53:54.438Z,367.49
2022-12-31T05:54:54.529Z,365.86
2022-12-31T05:55:54.594Z,365.46
2022-12-31T05:56:54.682Z,364.65
2022-12-31T05:57:54.764Z,365.46
2022-12-31T05:58:54.861Z,366.27
2022-12-31T05:59:54.936Z,365.46
2022-12-31T06:00:55.002Z,365.86
2022-12-31T06:01:55.063Z,364.25
2022-12-31T06:02:55.182Z,366.27
2022-12-31T06:03:55.298Z,365.05
2022-12-31T06:04:55.340Z,365.46
2022-12-31T06:05:55.417Z,366.27
2022-12-31T06:07:01.458Z,365.05
2022-12-31T06:07:55.543Z,365.05
2022-12-31T06:08:55.623Z,366.27
2022-12-31T06:09:55.688Z,367.49
2022-12-31T06:10:55.733Z,365.46
2022-12-31T06:11:55.836Z,366.27
2022-12-31T06:12:55.920Z,366.67
2022-12-31T06:13:55.989Z,366.27
2022-12-31T06:14:56.073Z,367.08
2022-12-31T06:15:56.242Z,366.67
2022-12-31T06:16:56.256Z,365.05
2022-12-31T06:17:56.349Z,368.31
2022-12-31T06:18:56.425Z,367.08
2022-12-31T06:19:56.503Z,365.46
2022-12-31T06:20:56.608Z,363.85
2022-12-31T06:21:56.674Z,366.67
2022-12-31T06:22:56.740Z,367.90
2022-12-31T06:23:56.823Z,366.27
2022-12-31T06:24:56.906Z,368.72
2022-12-31T06:25:56.983Z,366.67
2022-12-31T06:26:57.096Z,365.86
2022-12-31T06:27:57.271Z,366.27
2022-12-31T06:28:57.212Z,368.72
2022-12-31T06:29:57.299Z,367.90
2022-12-31T06:30:57.390Z,366.67
2022-12-31T06:31:57.508Z,365.46
2022-12-31T06:32:57.528Z,368.72
2022-12-31T06:33:57.616Z,367.90
2022-12-31T06:34:57.749Z,367.08
2022-12-31T06:35:57.825Z,367.90
2022-12-31T06:36:57.903Z,367.49
2022-12-31T06:38:04.304Z,369.54
2022-12-31T06:38:58.024Z,368.72
2022-12-31T06:39:58.104Z,367.08
2022-12-31T06:40:58.189Z,367.08
2022-12-31T06:41:58.288Z,368.31
2022-12-31T06:43:00.391Z,369.95
2022-12-31T06:43:58.464Z,370.37
2022-12-31T06:44:58.505Z,367.49
2022-12-31T06:45:58.599Z,366.67
2022-12-31T06:46:58.675Z,368.31
2022-12-31T06:47:58.749Z,369.95
2022-12-31T06:48:58.836Z,369.54
2022-12-31T06:49:58.899Z,369.54
2022-12-31T06:50:58.993Z,368.31
2022-12-31T06:51:59.070Z,369.13
2022-12-31T06:52:59.157Z,368.72
2022-12-31T06:53:59.255Z,368.72
2022-12-31T06:54:59.346Z,368.72
2022-12-31T06:55:59.403Z,368.72
2022-12-31T06:56:59.468Z,368.72
2022-12-31T06:57:59.546Z,368.72
2022-12-31T06:58:59.627Z,369.54
2022-12-31T06:59:59.748Z,368.72
2022-12-31T07:00:59.835Z,369.95
2022-12-31T07:02:00.099Z,369.95
2022-12-31T07:03:00.011Z,368.31
2022-12-31T07:04:00.133Z,370.79
2022-12-31T07:05:00.178Z,368.31
2022-12-31T07:06:00.299Z,368.31
2022-12-31T07:07:00.338Z,369.13
2022-12-31T07:08:00.404Z,371.20
2022-12-31T07:09:06.465Z,372.46
2022-12-31T07:10:00.564Z,369.54
2022-12-31T07:11:00.676Z,370.79
2022-12-31T07:12:00.728Z,369.13
2022-12-31T07:13:00.801Z,370.37
2022-12-31T07:14:00.903Z,369.13
2022-12-31T07:15:00.985Z,370.37
2022-12-31T07:16:01.130Z,370.79
2022-12-31T07:17:01.170Z,369.54
2022-12-31T07:18:01.214Z,370.37
2022-12-31T07:19:01.296Z,369.13
2022-12-31T07:20:01.380Z,367.90
2022-12-31T07:21:01.464Z,370.79
2022-12-31T07:22:01.565Z,370.37
2022-12-31T07:23:01.656Z,368.31
2022-12-31T07:24:01.743Z,372.04
2022-12-31T07:25:01.817Z,372.04
2022-12-31T07:26:01.876Z,369.54
2022-12-31T07:27:01.970Z,369.54
2022-12-31T07:28:02.081Z,369.13
2022-12-31T07:29:02.138Z,372.04
2022-12-31T07:30:02.229Z,371.20
2022-12-31T07:31:02.345Z,370.37
2022-12-31T07:32:02.381Z,370.37
2022-12-31T07:33:02.502Z,370.79
2022-12-31T07:34:02.563Z,370.79
2022-12-31T07:35:02.650Z,371.62
2022-12-31T07:36:02.740Z,369.95
2022-12-31T07:37:02.827Z,369.95
2022-12-31T07:38:02.944Z,370.37
2022-12-31T07:39:03.015Z,372.46
2022-12-31T07:40:09.054Z,369.95
2022-12-31T07:41:09.349Z,370.37
2022-12-31T07:42:03.219Z,372.88
2022-12-31T07:43:03.311Z,369.54
2022-12-31T07:44:03.363Z,370.79
2022-12-31T07:45:03.463Z,372.46
2022-12-31T07:46:03.533Z,369.54
2022-12-31T07:47:03.613Z,370.79
2022-12-31T07:48:03.704Z,369.54
2022-12-31T07:49:03.787Z,371.62
2022-12-31T07:50:03.900Z,370.37
2022-12-31T07:51:03.999Z,371.20
2022-12-31T07:52:04.037Z,374.14
2022-12-31T07:53:04.123Z,370.37
2022-12-31T07:54:08.752Z,371.20
2022-12-31T07:55:04.280Z,372.04
2022-12-31T07:56:04.379Z,372.04
2022-12-31T07:57:04.433Z,371.20
2022-12-31T07:58:04.523Z,372.04
2022-12-31T07:59:04.616Z,372.04
2022-12-31T08:00:04.687Z,371.20
2022-12-31T08:01:04.860Z,371.20
2022-12-31T08:02:04.933Z,370.79
2022-12-31T08:03:04.940Z,371.62
2022-12-31T08:04:05.000Z,371.62
2022-12-31T08:05:05.081Z,372.04
2022-12-31T08:06:05.167Z,371.62
2022-12-31T08:07:05.255Z,372.88
2022-12-31T08:08:05.338Z,371.62
2022-12-31T08:09:05.435Z,371.62
2022-12-31T08:10:05.532Z,370.37
2022-12-31T08:11:11.582Z,372.88
2022-12-31T08:12:05.690Z,369.95
2022-12-31T08:13:05.780Z,372.46
2022-12-31T08:14:05.859Z,370.79
2022-12-31T08:15:05.955Z,371.62
2022-12-31T08:16:06.083Z,373.30
2022-12-31T08:17:06.114Z,371.62
2022-12-31T08:18:06.194Z,373.72
2022-12-31T08:19:06.277Z,370.79
2022-12-31T08:20:06.342Z,372.04
2022-12-31T08:21:06.443Z,372.04
2022-12-31T08:22:06.521Z,372.04
2022-12-31T08:23:06.633Z,371.20
2022-12-31T08:24:06.728Z,371.20
2022-12-31T08:25:06.761Z,372.88
2022-12-31T08:26:06.841Z,372.88
2022-12-31T08:27:06.945Z,370.37
2022-12-31T08:28:07.044Z,372.04
2022-12-31T08:29:07.160Z,372.88
2022-12-31T08:30:07.190Z,373.72
2022-12-31T08:31:07.289Z,372.04
2022-12-31T08:32:07.348Z,370.37
2022-12-31T08:33:07.426Z,373.30
2022-12-31T08:34:07.545Z,373.30
2022-12-31T08:35:07.601Z,372.88
2022-12-31T08:36:07.667Z,371.20
2022-12-31T08:37:07.769Z,373.72
2022-12-31T08:38:07.854Z,371.62
2022-12-31T08:39:07.941Z,371.20
2022-12-31T08:40:08.059Z,372.46
2022-12-31T08:41:08.109Z,373.30
2022-12-31T08:42:14.172Z,374.14
2022-12-31T08:43:08.287Z,374.99
2022-12-31T08:44:08.346Z,371.62
2022-12-31T08:45:08.433Z,373.72
2022-12-31T08:46:08.575Z,373.72
2022-12-31T08:47:08.605Z,372.88
2022-12-31T08:48:08.683Z,372.88
2022-12-31T08:49:08.771Z,373.30
2022-12-31T08:50:08.879Z,373.30
2022-12-31T08:51:08.949Z,373.72
2022-12-31T08:52:09.059Z,372.46
2022-12-31T08:53:09.108Z,373.72
2022-12-31T08:54:09.205Z,372.88
2022-12-31T08:55:09.291Z,374.14
2022-12-31T08:56:09.399Z,372.46
2022-12-31T08:57:09.460Z,373.72
2022-12-31T08:58:09.554Z,372.88
2022-12-31T08:59:09.633Z,374.14
2022-12-31T09:00:09.732Z,372.88
2022-12-31T09:01:09.872Z,371.62
2022-12-31T09:02:09.995Z,371.62
2022-12-31T09:03:09.997Z,373.30
2022-12-31T09:04:10.104Z,373.72
2022-12-31T09:05:10.131Z,374.57
2022-12-31T09:06:10.203Z,372.46
2022-12-31T09:07:10.287Z,372.04
2022-12-31T09:08:10.368Z,374.57
2022-12-31T09:09:10.511Z,373.72
2022-12-31T09:10:10.553Z,372.88
2022-12-31T09:11:10.626Z,372.88
2022-12-31T09:12:10.687Z,373.30
2022-12-31T09:13:16.754Z,373.30
2022-12-31T09:14:10.874Z,374.14
2022-12-31T09:15:10.989Z,373.72
2022-12-31T09:16:11.073Z,372.46
2022-12-31T09:17:11.121Z,372.88
2022-12-31T09:18:11.215Z,373.72
2022-12-31T09:19:11.280Z,372.88
2022-12-31T09:20:11.383Z,372.88
2022-12-31T09:21:11.486Z,372.88
2022-12-31T09:22:11.530Z,372.04
2022-12-31T09:23:11.627Z,372.46
2022-12-31T09:24:11.714Z,374.14
2022-12-31T09:25:11.793Z,373.30
2022-12-31T09:26:11.863Z,374.14
2022-12-31T09:27:11.951Z,373.72
2022-12-31T09:28:12.043Z,372.04
2022-12-31T09:29:12.107Z,372.88
2022-12-31T09:30:12.176Z,372.46
2022-12-31T09:31:12.269Z,373.72
2022-12-31T09:32:12.367Z,374.14
2022-12-31T09:33:12.522Z,372.88
2022-12-31T09:34:12.566Z,372.88
2022-12-31T09:35:12.648Z,372.46
2022-12-31T09:36:12.704Z,372.88
2022-12-31T09:37:12.794Z,374.57
2022-12-31T09:38:12.892Z,373.30
2022-12-31T09:39:12.991Z,373.30
2022-12-31T09:40:13.078Z,374.14
2022-12-31T09:41:13.162Z,373.30
2022-12-31T09:42:13.221Z,372.88
2022-12-31T09:43:13.316Z,372.46
2022-12-31T09:44:19.403Z,372.46
2022-12-31T09:45:13.457Z,372.46
2022-12-31T09:46:13.575Z,372.04
2022-12-31T09:47:13.612Z,373.72
2022-12-31T09:48:13.696Z,372.04
2022-12-31T09:49:13.778Z,373.72
2022-12-31T09:50:13.901Z,374.57
2022-12-31T09:51:13.962Z,370.79
2022-12-31T09:52:14.061Z,372.46
2022-12-31T09:53:14.114Z,372.88
2022-12-31T09:54:14.204Z,373.72
2022-12-31T09:55:14.270Z,374.57
2022-12-31T09:56:14.384Z,374.57
2022-12-31T09:57:14.440Z,374.14
2022-12-31T09:58:14.517Z,372.04
2022-12-31T09:59:14.576Z,371.62
2022-12-31T10:00:14.700Z,370.37
2022-12-31T10:01:14.943Z,370.79
2022-12-31T10:02:15.088Z,372.46
2022-12-31T10:03:15.023Z,371.62
2022-12-31T10:04:14.963Z,371.20
2022-12-31T10:05:15.059Z,371.20
2022-12-31T10:06:15.121Z,371.62
2022-12-31T10:07:15.237Z,370.37
2022-12-31T10:08:15.277Z,370.37
2022-12-31T10:09:15.356Z,370.79
2022-12-31T10:10:15.473Z,373.30
2022-12-31T10:11:15.527Z,372.88
2022-12-31T10:12:15.606Z,371.62
2022-12-31T10:13:15.694Z,372.46
2022-12-31T10:14:15.793Z,370.37
2022-12-31T10:15:21.849Z,370.37
2022-12-31T10:16:16.076Z,372.04
2022-12-31T10:17:16.042Z,372.46
2022-12-31T10:18:16.142Z,371.62
2022-12-31T10:19:16.189Z,370.79
2022-12-31T10:20:16.283Z,370.37
2022-12-31T10:21:16.352Z,369.54
2022-12-31T10:22:16.431Z,370.79
2022-12-31T10:23:16.539Z,372.88
2022-12-31T10:24:16.602Z,371.62
2022-12-31T10:25:16.688Z,373.72
2022-12-31T10:26:16.767Z,370.79
2022-12-31T10:27:16.847Z,371.62
2022-12-31T10:28:16.916Z,370.79
2022-12-31T10:29:17.026Z,369.95
2022-12-31T10:30:17.061Z,370.79
2022-12-31T10:31:17.169Z,370.79
2022-12-31T10:32:17.226Z,371.20
2022-12-31T10:33:17.329Z,369.54
2022-12-31T10:34:17.399Z,369.54
2022-12-31T10:35:17.494Z,372.04
2022-12-31T10:36:17.558Z,370.37
2022-12-31T10:37:17.644Z,369.95
2022-12-31T10:38:17.706Z,372.04
2022-12-31T10:39:24.062Z,367.90
2022-12-31T10:40:17.974Z,372.04
2022-12-31T10:41:17.969Z,372.04
2022-12-31T10:42:18.028Z,370.79
2022-12-31T10:43:18.100Z,373.30
2022-12-31T10:44:18.172Z,369.13
2022-12-31T10:45:18.259Z,371.62
2022-12-31T10:46:24.485Z,372.88
2022-12-31T10:47:18.418Z,370.79
2022-12-31T10:48:18.501Z,369.54
2022-12-31T10:49:18.583Z,369.13
2022-12-31T10:50:18.673Z,370.37
2022-12-31T10:51:18.734Z,373.30
2022-12-31T10:52:18.896Z,370.37
2022-12-31T10:53:19.020Z,370.37
2022-12-31T10:54:19.058Z,372.46
2022-12-31T10:55:19.101Z,372.04
2022-12-31T10:56:19.187Z,373.30
2022-12-31T10:57:19.251Z,373.72
2022-12-31T10:58:19.314Z,370.37
2022-12-31T10:59:19.389Z,370.37
2022-12-31T11:00:19.488Z,371.20
2022-12-31T11:01:19.629Z,371.62
2022-12-31T11:02:19.819Z,370.79
2022-12-31T11:03:25.206Z,370.79
2022-12-31T11:04:19.802Z,370.79
2022-12-31T11:05:19.881Z,374.14
2022-12-31T11:06:19.955Z,373.72
2022-12-31T11:07:20.017Z,372.88
2022-12-31T11:08:20.115Z,372.04
2022-12-31T11:09:20.228Z,372.04
2022-12-31T11:10:20.298Z,372.46
2022-12-31T11:11:20.373Z,371.20
2022-12-31T11:12:20.474Z,372.46
2022-12-31T11:13:20.562Z,371.62
2022-12-31T11:14:20.671Z,372.46
2022-12-31T11:15:20.743Z,372.88
2022-12-31T11:16:20.884Z,371.62
2022-12-31T11:17:26.867Z,369.95
2022-12-31T11:18:20.982Z,371.62
2022-12-31T11:19:21.072Z,372.88
2022-12-31T11:20:21.176Z,369.95
2022-12-31T11:21:27.742Z,373.30
2022-12-31T11:22:21.325Z,371.62
2022-12-31T11:23:21.392Z,372.04
2022-12-31T11:24:21.475Z,370.79
2022-12-31T11:25:21.573Z,374.14
2022-12-31T11:26:21.615Z,373.72
2022-12-31T11:27:21.718Z,372.46
2022-12-31T11:28:21.832Z,373.30
2022-12-31T11:29:21.889Z,372.04
2022-12-31T11:30:21.960Z,373.30
2022-12-31T11:31:22.184Z,369.95
2022-12-31T11:32:22.123Z,370.79
2022-12-31T11:33:22.222Z,372.88
2022-12-31T11:34:22.303Z,371.62
2022-12-31T11:35:22.379Z,371.62
2022-12-31T11:36:22.485Z,372.46
2022-12-31T11:37:22.538Z,373.30
2022-12-31T11:38:22.608Z,372.46
2022-12-31T11:39:30.558Z,372.88
2022-12-31T11:40:22.779Z,371.20
2022-12-31T11:41:22.845Z,373.30
2022-12-31T11:42:22.942Z,373.30
2022-12-31T11:43:23.006Z,372.04
2022-12-31T11:44:23.071Z,370.37
2022-12-31T11:45:23.173Z,372.04
2022-12-31T11:46:23.246Z,374.14
2022-12-31T11:47:23.314Z,369.54
2022-12-31T11:48:31.345Z,370.37
2022-12-31T11:49:23.473Z,372.88
2022-12-31T11:50:23.557Z,371.62
2022-12-31T11:51:23.657Z,371.62
2022-12-31T11:52:23.737Z,372.46
2022-12-31T11:53:23.836Z,372.88
2022-12-31T11:54:23.941Z,368.72
2022-12-31T11:55:23.998Z,369.95
2022-12-31T11:56:24.072Z,370.79
2022-12-31T11:57:24.174Z,372.04
2022-12-31T11:58:24.252Z,372.88
2022-12-31T11:59:24.345Z,370.79
2022-12-31T12:00:24.415Z,371.20
2022-12-31T12:01:24.562Z,370.37
2022-12-31T12:02:24.617Z,371.62
2022-12-31T12:03:24.791Z,372.46
2022-12-31T12:04:24.762Z,370.79
2022-12-31T12:05:24.858Z,367.49
2022-12-31T12:06:24.942Z,370.79
2022-12-31T12:07:25.041Z,370.37
2022-12-31T12:08:25.137Z,369.95
2022-12-31T12:09:25.218Z,368.72
2022-12-31T12:10:31.752Z,369.95
2022-12-31T12:11:25.418Z,369.54
2022-12-31T12:12:25.480Z,371.62
2022-12-31T12:13:25.570Z,368.31
2022-12-31T12:14:25.644Z,370.79
2022-12-31T12:15:25.702Z,369.13
2022-12-31T12:16:25.864Z,371.62
2022-12-31T12:17:25.880Z,367.90
2022-12-31T12:18:25.954Z,369.54
2022-12-31T12:19:32.016Z,370.37
2022-12-31T12:20:26.114Z,368.31
2022-12-31T12:21:26.209Z,371.20
2022-12-31T12:22:26.290Z,367.49
2022-12-31T12:23:26.348Z,367.90
2022-12-31T12:24:26.440Z,366.67
2022-12-31T12:25:26.527Z,368.72
2022-12-31T12:26:26.622Z,371.20
2022-12-31T12:27:26.705Z,368.31
2022-12-31T12:28:26.783Z,366.67
2022-12-31T12:29:26.860Z,368.31